Weather reports worldwide

Advertisment
San Pancrazio, Italy (16130): temperature & dewpoint: 17.10.2019 06:00:00 - 23.10.2019 06:00:00 (CEST)San Pancrazio, Italy (16130): wind speed: 17.10.2019 06:00:00 - 23.10.2019 06:00:00 (CEST)San Pancrazio, Italy (16130): wind direction: 17.10.2019 06:00:00 - 23.10.2019 06:00:00 (CEST)San Pancrazio, Italy (16130): precipitation: 17.10.2019 06:00:00 - 23.10.2019 06:00:00 (CEST)
Date & Time tt [°C] td [°C] ff [km/h] ff [kn] dd rr [mm]
23.10.2019 06:00:00 - - - - - -
23.10.2019 05:00:00 17,4 15,6 1 1 NW 0,0
23.10.2019 04:00:00 17,4 15,6 2 1 NW 0,0
23.10.2019 03:00:00 17,4 15,4 4 2 WSW 0,0
23.10.2019 02:00:00 17,6 15,6 1 1 W 0,0
23.10.2019 01:00:00 17,7 15,7 1 1 W 0,0
23.10.2019 00:00:00 17,9 15,7 2 1 W 0,0
22.10.2019 23:00:00 17,9 15,7 3 1 SW 0,0
22.10.2019 22:00:00 18,1 15,7 4 2 WNW 0,0
22.10.2019 21:00:00 18,5 15,9 3 1 NNW 0,0
22.10.2019 20:00:00 18,4 16,0 4 2 NNW 0,0
22.10.2019 19:00:00 19,1 16,1 1 1 E 0,0
22.10.2019 18:00:00 20,0 15,6 3 2 N 0,0
22.10.2019 17:00:00 20,3 15,5 4 2 NNW 0,0
22.10.2019 16:00:00 20,2 15,8 5 3 N 0,0
22.10.2019 15:00:00 19,9 15,9 5 3 WNW 0,0
22.10.2019 14:00:00 20,1 15,9 4 2 NW 0,0
22.10.2019 13:00:00 19,1 16,1 3 2 NW 0,0
22.10.2019 12:00:00 18,9 16,1 5 3 N 0,0
22.10.2019 11:00:00 18,7 16,5 6 3 NNW 0,0
22.10.2019 10:00:00 17,9 15,9 2 1 NNE 0,0
22.10.2019 09:00:00 18,0 16,0 0 0 ESE 0,0
22.10.2019 08:00:00 17,8 15,8 4 2 E 0,0
22.10.2019 07:00:00 17,7 15,7 6 3 ENE 0,0
22.10.2019 06:00:00 17,7 15,7 5 3 E 0,0
22.10.2019 05:00:00 18,0 15,6 6 3 E 0,0
22.10.2019 04:00:00 17,9 15,5 6 3 ENE 0,0
22.10.2019 03:00:00 18,0 15,6 7 4 ENE 0,0
22.10.2019 02:00:00 18,1 15,7 5 3 ENE 0,0
22.10.2019 01:00:00 18,2 15,6 6 3 NE 0,0
22.10.2019 00:00:00 18,4 15,6 9 5 ENE 0,0
21.10.2019 23:00:00 18,6 15,5 11 6 E 0,0
21.10.2019 22:00:00 18,4 15,3 8 4 E 0,0
21.10.2019 21:00:00 19,1 15,2 15 8 ESE 0,0
21.10.2019 20:00:00 19,5 15,6 6 4 E 0,0
21.10.2019 19:00:00 19,8 15,4 8 4 ESE 0,0
21.10.2019 18:00:00 20,8 15,6 13 7 E 0,0
21.10.2019 17:00:00 - - - - - -
21.10.2019 16:00:00 23,3 16,8 14 7 NE 0,0
21.10.2019 15:00:00 23,1 16,2 9 5 ENE 0,0
21.10.2019 14:00:00 22,1 16,4 5 3 WNW 0,0
21.10.2019 13:00:00 20,8 16,2 10 5 SE 0,0
21.10.2019 12:00:00 18,4 15,3 7 4 SE 0,0
21.10.2019 11:00:00 17,5 15,3 6 4 SSE 0,0
21.10.2019 10:00:00 17,3 15,1 6 3 S 0,0
21.10.2019 09:00:00 17,0 15,2 3 2 SE 0,0
21.10.2019 08:00:00 16,9 15,1 4 2 E 0,0
21.10.2019 07:00:00 16,7 14,9 5 3 E 0,0
21.10.2019 06:00:00 16,4 14,4 9 5 E 0,0
21.10.2019 05:00:00 16,4 14,2 9 5 ESE 0,0
21.10.2019 04:00:00 16,3 14,1 10 5 SE 0,0
21.10.2019 03:00:00 16,0 14,0 4 2 S 0,0
21.10.2019 02:00:00 16,3 14,0 4 2 S 0,8
21.10.2019 01:00:00 16,3 13,8 5 3 E 1,6
21.10.2019 00:00:00 15,5 12,8 3 2 N 0,0
20.10.2019 23:00:00 16,6 12,9 2 1 ESE 0,4
20.10.2019 22:00:00 17,0 12,7 2 1 NNE 0,0
20.10.2019 21:00:00 18,4 12,4 5 3 ESE 0,0
20.10.2019 20:00:00 18,5 12,7 4 2 E 0,0
20.10.2019 19:00:00 19,7 12,7 8 5 E 0,0
20.10.2019 18:00:00 20,5 12,5 9 5 E 0,0
20.10.2019 17:00:00 21,8 12,9 11 6 E 0,0
20.10.2019 16:00:00 22,1 13,2 11 6 E 0,0
20.10.2019 15:00:00 21,6 12,4 9 5 E 0,0
20.10.2019 14:00:00 20,3 12,8 7 4 ESE 0,0
20.10.2019 13:00:00 19,2 12,7 6 4 E 0,0
20.10.2019 12:00:00 16,5 12,8 10 6 ENE 0,0
20.10.2019 11:00:00 14,4 12,8 7 4 NNE 0,0
20.10.2019 10:00:00 13,3 11,9 4 2 ENE 0,0
20.10.2019 09:00:00 12,8 11,4 4 2 E 0,0
20.10.2019 08:00:00 13,0 11,4 4 2 E 0,0
20.10.2019 07:00:00 13,1 11,5 4 2 E 0,2
20.10.2019 06:00:00 13,2 11,6 2 1 ESE 0,0
20.10.2019 05:00:00 13,5 11,9 3 2 SSW 0,0
20.10.2019 04:00:00 13,8 12,2 5 3 ESE 0,0
20.10.2019 03:00:00 13,9 12,3 2 1 SE 0,0
20.10.2019 02:00:00 13,0 11,4 3 2 ESE 0,0
20.10.2019 01:00:00 12,7 11,1 1 0 SW 0,0
20.10.2019 00:00:00 13,6 11,8 4 2 ENE 0,0
19.10.2019 23:00:00 14,4 12,6 5 3 ENE 0,0
19.10.2019 22:00:00 14,9 13,1 4 2 SE 0,0
19.10.2019 21:00:00 14,4 12,3 4 2 E 0,0
19.10.2019 20:00:00 15,9 13,4 3 2 NNE 0,0
19.10.2019 19:00:00 17,4 14,1 6 3 ENE 0,0
19.10.2019 18:00:00 18,9 14,4 6 3 E 0,0
19.10.2019 17:00:00 19,6 14,2 9 5 E 0,0
19.10.2019 16:00:00 19,7 13,9 9 5 E 0,0
19.10.2019 15:00:00 18,8 13,2 8 4 E 0,0
19.10.2019 14:00:00 17,2 12,9 10 5 ENE 0,0
19.10.2019 13:00:00 16,1 12,8 9 5 E 0,2
19.10.2019 12:00:00 15,4 12,3 8 4 ENE 0,0
19.10.2019 11:00:00 15,2 11,8 6 4 E 0,0
19.10.2019 10:00:00 14,2 11,7 4 2 E 0,0
19.10.2019 09:00:00 14,0 - 6 3 NE -
19.10.2019 08:00:00 13,7 11,7 2 1 E 0,0
19.10.2019 07:00:00 13,6 11,6 0 0 E 0,0
19.10.2019 06:00:00 13,4 11,3 2 1 S 0,0
19.10.2019 05:00:00 14,0 11,5 0 0 S 0,2
19.10.2019 04:00:00 14,2 11,7 5 3 E 0,0
19.10.2019 03:00:00 14,2 11,5 2 1 SSE 0,0
19.10.2019 02:00:00 14,1 11,6 0 0 SE 0,0
19.10.2019 01:00:00 14,2 12,1 3 1 SSE 0,0
19.10.2019 00:00:00 13,8 11,8 4 2 SSE 0,0
18.10.2019 23:00:00 13,9 11,9 4 2 SSE 0,0
18.10.2019 22:00:00 14,6 12,3 3 2 E 0,0
18.10.2019 21:00:00 15,0 12,5 3 2 NNE 0,0
18.10.2019 20:00:00 15,0 12,5 2 1 NNE 0,0
18.10.2019 19:00:00 16,2 12,2 2 1 NE 0,0
18.10.2019 18:00:00 17,5 12,4 4 2 N 0,0
18.10.2019 17:00:00 17,8 12,7 8 4 NNE 0,0
18.10.2019 16:00:00 19,2 12,0 12 6 NE 0,0
18.10.2019 15:00:00 19,6 11,9 10 5 NE 0,0
18.10.2019 14:00:00 19,4 12,2 9 5 NE 0,0
18.10.2019 13:00:00 18,4 11,5 4 2 NE 0,0
18.10.2019 12:00:00 17,6 10,9 2 1 ESE 0,0
18.10.2019 11:00:00 17,8 11,8 5 3 NNE 0,0
18.10.2019 10:00:00 15,9 11,5 1 1 W 0,0
18.10.2019 09:00:00 14,4 10,8 1 1 SW 0,0
18.10.2019 08:00:00 13,8 10,2 3 2 WSW 0,0
18.10.2019 07:00:00 13,6 10,2 4 2 WSW 0,0
18.10.2019 06:00:00 13,5 10,1 3 2 SW 0,0
18.10.2019 05:00:00 13,4 10,0 5 3 SSW 0,0
18.10.2019 04:00:00 13,0 10,0 4 2 SSW 0,0
18.10.2019 03:00:00 12,5 9,5 3 2 SW 0,0
18.10.2019 02:00:00 12,6 9,1 5 3 WSW 0,0
18.10.2019 01:00:00 13,6 9,6 6 3 WSW 0,0
18.10.2019 00:00:00 14,4 9,4 10 5 WSW 0,0
17.10.2019 23:00:00 16,0 10,1 6 3 W 0,0
17.10.2019 22:00:00 15,9 11,5 6 3 WSW 0,0
17.10.2019 21:00:00 15,6 12,2 1 0 S 0,0
17.10.2019 20:00:00 15,7 12,1 1 0 W 0,0
17.10.2019 19:00:00 16,5 12,1 1 0 W 0,0
17.10.2019 18:00:00 17,1 11,4 2 1 WNW 0,0
17.10.2019 17:00:00 17,4 11,0 4 2 WNW 0,0
17.10.2019 16:00:00 17,7 11,7 4 2 NW 0,0
17.10.2019 15:00:00 18,0 11,3 8 4 NW 0,0
17.10.2019 14:00:00 18,7 11,0 8 4 NNW 0,0
17.10.2019 13:00:00 18,6 9,9 6 3 N 0,0
17.10.2019 12:00:00 18,6 10,2 4 2 NW 0,0
17.10.2019 11:00:00 18,2 9,5 1 1 NW 0,0
17.10.2019 10:00:00 16,3 10,2 6 3 SW 0,0
17.10.2019 09:00:00 13,8 9,4 6 3 SSW 0,0
17.10.2019 08:00:00 11,3 8,3 5 3 SW 0,0
17.10.2019 07:00:00 12,1 8,6 7 4 SW 0,0
17.10.2019 06:00:00 11,9 8,9 6 3 W 0,0

tt = temperature
td = dewpoint
ff = wind speed
dd = wind direction
rr = precipitation

Next stations